createdAt,value
2023-03-06T00:01:07.316Z,54.19
2023-03-06T00:04:11.080Z,54.18
2023-03-06T00:07:16.167Z,53.99
2023-03-06T00:10:21.714Z,53.15
2023-03-06T00:13:30.266Z,53.75
2023-03-06T00:16:34.112Z,53.36
2023-03-06T00:19:37.915Z,53.94
2023-03-06T00:22:43.687Z,53.93
2023-03-06T00:25:47.904Z,53.50
2023-03-06T00:28:51.573Z,53.58
2023-03-06T00:31:55.265Z,53.90
2023-03-06T00:34:58.954Z,53.22
2023-03-06T00:38:04.087Z,53.69
2023-03-06T00:41:11.098Z,54.82
2023-03-06T00:44:14.867Z,54.43
2023-03-06T00:47:18.428Z,54.48
2023-03-06T00:50:22.139Z,54.48
2023-03-06T00:53:27.448Z,55.33
2023-03-06T00:56:31.319Z,54.80
2023-03-06T00:59:35.453Z,55.10
2023-03-06T01:02:39.218Z,54.94
2023-03-06T01:05:42.897Z,54.48
2023-03-06T01:08:47.989Z,55.35
2023-03-06T01:11:51.722Z,54.84
2023-03-06T01:14:55.389Z,55.17
2023-03-06T01:17:59.038Z,55.28
2023-03-06T01:21:02.619Z,55.46
2023-03-06T01:24:08.216Z,55.24
2023-03-06T01:27:11.825Z,55.57
2023-03-06T01:30:15.746Z,55.24
2023-03-06T01:33:19.509Z,54.76
2023-03-06T01:36:23.181Z,54.89
2023-03-06T01:39:28.947Z,54.59
2023-03-06T01:42:32.778Z,54.74
2023-03-06T01:46:13.404Z,54.71
2023-03-06T01:49:21.957Z,54.50
2023-03-06T01:52:30.467Z,54.60
2023-03-06T01:55:38.096Z,54.22
2023-03-06T01:58:43.912Z,53.86
2023-03-06T02:01:48.626Z,53.60
2023-03-06T02:04:52.643Z,53.34
2023-03-06T02:07:56.728Z,53.84
2023-03-06T02:11:08.030Z,54.64
2023-03-06T02:14:14.210Z,54.51
2023-03-06T02:17:21.171Z,54.33
2023-03-06T02:20:30.687Z,54.49
2023-03-06T02:23:42.678Z,54.50
2023-03-06T02:26:49.200Z,55.59
2023-03-06T02:29:53.320Z,55.32
2023-03-06T02:32:57.233Z,55.57
2023-03-06T02:36:03.070Z,55.31
2023-03-06T02:39:07.507Z,56.07
2023-03-06T02:42:19.527Z,55.55
2023-03-06T02:45:27.725Z,56.70
2023-03-06T02:48:31.481Z,57.04
2023-03-06T02:51:36.050Z,57.23
2023-03-06T02:54:39.748Z,56.48
2023-03-06T02:57:45.803Z,56.46
2023-03-06T03:00:51.485Z,56.67
2023-03-06T03:03:56.677Z,56.20
2023-03-06T03:07:00.805Z,56.79
2023-03-06T03:10:05.519Z,56.46
2023-03-06T03:13:11.041Z,56.62
2023-03-06T03:16:16.777Z,56.40
2023-03-06T03:19:20.389Z,56.80
2023-03-06T03:22:24.347Z,57.08
2023-03-06T03:25:28.159Z,57.27
2023-03-06T03:28:35.764Z,56.80
2023-03-06T03:31:39.713Z,56.48
2023-03-06T03:34:43.439Z,56.91
2023-03-06T03:37:47.098Z,56.33
2023-03-06T03:40:51.370Z,56.77
2023-03-06T03:43:56.436Z,56.74
2023-03-06T03:47:00.708Z,56.87
2023-03-06T03:50:04.942Z,57.46
2023-03-06T03:53:08.846Z,56.35
2023-03-06T03:56:13.344Z,56.20
2023-03-06T03:59:27.471Z,56.53
2023-03-06T04:02:50.211Z,56.52
2023-03-06T04:06:02.940Z,56.70
2023-03-06T04:09:06.944Z,56.30
2023-03-06T04:12:12.031Z,56.94
2023-03-06T04:15:17.091Z,56.68
2023-03-06T04:18:24.211Z,56.72
2023-03-06T04:21:30.389Z,56.02
2023-03-06T04:24:34.223Z,56.80
2023-03-06T04:27:38.113Z,56.14
2023-03-06T04:30:44.385Z,56.52
2023-03-06T04:33:48.076Z,56.63
2023-03-06T04:36:52.442Z,56.89
2023-03-06T04:39:56.175Z,56.87
2023-03-06T04:43:01.602Z,57.30
2023-03-06T04:46:07.036Z,56.61
2023-03-06T04:49:10.684Z,57.18
2023-03-06T04:52:14.251Z,57.45
2023-03-06T04:55:18.478Z,57.30
2023-03-06T04:58:22.251Z,56.88
2023-03-06T05:01:27.436Z,58.17
2023-03-06T05:04:31.101Z,57.38
2023-03-06T05:07:34.654Z,57.77
2023-03-06T05:10:38.478Z,57.58
2023-03-06T05:13:42.124Z,57.57
2023-03-06T05:16:47.465Z,57.36
2023-03-06T05:19:51.066Z,58.00
2023-03-06T05:22:54.733Z,57.70
2023-03-06T05:25:58.686Z,58.49
2023-03-06T05:29:02.489Z,58.04
2023-03-06T05:32:08.246Z,58.10
2023-03-06T05:35:18.998Z,57.80
2023-03-06T05:38:23.327Z,57.57
2023-03-06T05:41:26.974Z,58.72
2023-03-06T05:44:33.581Z,57.29
2023-03-06T05:47:38.722Z,57.40
2023-03-06T05:50:42.435Z,57.47
2023-03-06T05:53:46.199Z,57.04
2023-03-06T05:56:50.560Z,56.43
2023-03-06T05:59:54.468Z,55.54
2023-03-06T06:03:02.526Z,55.10
2023-03-06T06:06:07.131Z,54.20
2023-03-06T06:09:13.773Z,53.21
2023-03-06T06:12:17.672Z,52.34
2023-03-06T06:15:21.450Z,51.85
2023-03-06T06:18:26.724Z,50.73
2023-03-06T06:21:30.581Z,51.35
2023-03-06T06:24:34.457Z,49.81
2023-03-06T06:27:38.215Z,49.64
2023-03-06T06:30:42.009Z,48.31
2023-03-06T06:33:47.414Z,48.28
2023-03-06T06:36:53.511Z,47.53
2023-03-06T06:39:57.615Z,46.47
2023-03-06T06:43:01.480Z,46.42
2023-03-06T06:46:36.463Z,46.48
2023-03-06T06:49:31.266Z,45.88
2023-03-06T06:52:35.600Z,45.01
2023-03-06T06:55:39.423Z,44.98
2023-03-06T06:58:43.138Z,44.54
2023-03-06T07:01:47.066Z,45.38
2023-03-06T07:05:04.265Z,44.60
2023-03-06T07:08:09.278Z,44.78
2023-03-06T07:11:15.198Z,44.51
2023-03-06T07:14:19.211Z,44.41
2023-03-06T07:17:25.534Z,44.09
2023-03-06T07:20:32.199Z,44.08
2023-03-06T07:23:36.261Z,43.32
2023-03-06T07:26:40.112Z,43.35
2023-03-06T07:29:45.047Z,42.79
2023-03-06T07:32:48.920Z,43.24
2023-03-06T07:35:54.387Z,42.71
2023-03-06T07:38:58.201Z,43.56
2023-03-06T07:42:02.220Z,43.25
2023-03-06T07:45:08.164Z,42.72
2023-03-06T07:48:12.030Z,42.16
2023-03-06T07:51:19.022Z,42.78
2023-03-06T07:54:22.968Z,42.10
2023-03-06T07:57:26.955Z,41.57
2023-03-06T08:00:30.848Z,41.07
2023-03-06T08:03:35.183Z,40.67
2023-03-06T08:06:40.501Z,39.45
2023-03-06T08:09:44.313Z,39.42
2023-03-06T08:12:48.224Z,39.78
2023-03-06T08:15:52.131Z,39.51
2023-03-06T08:18:56.380Z,39.25
2023-03-06T08:22:01.674Z,38.92
2023-03-06T08:25:06.789Z,38.45
2023-03-06T08:28:10.636Z,38.04
2023-03-06T08:31:22.612Z,37.62
2023-03-06T08:34:27.335Z,36.77
2023-03-06T08:37:32.600Z,37.18
2023-03-06T08:40:36.442Z,37.21
2023-03-06T08:43:40.622Z,37.29
2023-03-06T08:46:44.501Z,37.09
2023-03-06T08:49:48.403Z,36.30
2023-03-06T08:52:53.663Z,36.57
2023-03-06T08:55:57.589Z,36.64
2023-03-06T08:59:04.266Z,36.59
2023-03-06T09:02:08.181Z,36.81
2023-03-06T09:05:12.469Z,36.11
2023-03-06T09:08:18.249Z,36.10
2023-03-06T09:11:27.331Z,35.54
2023-03-06T09:14:32.545Z,35.81
2023-03-06T09:18:06.815Z,35.32
2023-03-06T09:21:11.438Z,35.75
2023-03-06T09:24:16.894Z,34.99
2023-03-06T09:27:20.721Z,34.17
2023-03-06T09:30:24.633Z,34.13
2023-03-06T09:33:28.922Z,33.96
2023-03-06T09:36:42.788Z,33.83
2023-03-06T09:39:54.686Z,33.64
2023-03-06T09:42:58.551Z,33.29
2023-03-06T09:46:02.789Z,33.57
2023-03-06T09:49:17.152Z,33.81
2023-03-06T09:52:38.858Z,33.78
2023-03-06T09:55:47.604Z,33.35
2023-03-06T09:58:55.126Z,32.68
2023-03-06T10:02:03.254Z,33.10
2023-03-06T10:05:12.425Z,32.80
2023-03-06T10:08:25.505Z,33.47
2023-03-06T10:11:38.224Z,34.40
2023-03-06T10:14:48.465Z,33.91
2023-03-06T10:17:53.446Z,34.82
2023-03-06T10:21:16.928Z,33.49
2023-03-06T10:24:43.684Z,33.60
2023-03-06T10:27:51.051Z,33.40
2023-03-06T10:31:04.056Z,33.37
2023-03-06T10:34:20.979Z,33.39
2023-03-06T10:37:25.030Z,33.54
2023-03-06T10:40:39.928Z,33.51
2023-03-06T10:43:46.979Z,32.53
2023-03-06T10:46:52.873Z,32.36
2023-03-06T10:50:06.668Z,32.61
2023-03-06T10:53:22.712Z,32.28
2023-03-06T10:56:32.046Z,32.08
2023-03-06T10:59:51.957Z,32.24
2023-03-06T11:03:07.989Z,32.77
2023-03-06T11:06:14.588Z,33.76
2023-03-06T11:09:23.802Z,33.29
2023-03-06T11:12:29.904Z,32.48
2023-03-06T11:15:35.466Z,32.32
2023-03-06T11:18:42.388Z,33.27
2023-03-06T11:22:01.743Z,32.79
2023-03-06T11:25:06.992Z,33.03
2023-03-06T11:28:20.090Z,33.36
2023-03-06T11:31:30.326Z,33.33
2023-03-06T11:34:41.911Z,33.20
2023-03-06T11:37:51.532Z,32.89
2023-03-06T11:40:57.746Z,32.56
2023-03-06T11:44:07.664Z,32.50
2023-03-06T11:47:44.895Z,32.50
2023-03-06T11:50:51.267Z,32.93
2023-03-06T11:53:56.624Z,32.40
2023-03-06T11:57:03.754Z,32.19
2023-03-06T12:00:22.738Z,31.73
2023-03-06T12:03:57.502Z,30.80
2023-03-06T12:07:11.382Z,31.91
2023-03-06T12:10:20.582Z,32.43
2023-03-06T12:13:50.241Z,32.22
2023-03-06T12:17:09.596Z,32.46
2023-03-06T12:20:31.970Z,32.66
2023-03-06T12:23:57.988Z,31.86
2023-03-06T12:27:15.209Z,32.60
2023-03-06T12:30:50.062Z,32.55
2023-03-06T12:34:07.298Z,33.30
2023-03-06T12:37:23.270Z,32.81
2023-03-06T12:40:47.123Z,32.48
2023-03-06T12:44:15.876Z,33.61
2023-03-06T12:47:23.299Z,33.62
2023-03-06T12:50:30.347Z,33.53
2023-03-06T12:53:51.528Z,32.26
2023-03-06T12:56:58.264Z,32.46
2023-03-06T13:00:02.151Z,32.47
2023-03-06T13:03:19.189Z,32.00
2023-03-06T13:06:56.018Z,32.61
2023-03-06T13:10:10.338Z,32.29
2023-03-06T13:13:33.192Z,32.77
2023-03-06T13:16:37.032Z,33.04
2023-03-06T13:19:40.795Z,33.48
2023-03-06T13:22:45.863Z,34.08
2023-03-06T13:25:52.304Z,34.30
2023-03-06T13:28:58.430Z,33.97
2023-03-06T13:32:18.460Z,33.27
2023-03-06T13:35:49.979Z,33.73
2023-03-06T13:39:02.309Z,34.49
2023-03-06T13:42:08.607Z,35.47
2023-03-06T13:45:18.018Z,35.44
2023-03-06T13:48:47.832Z,35.10
2023-03-06T13:52:07.825Z,35.05
2023-03-06T13:55:25.729Z,34.97
2023-03-06T13:58:46.469Z,36.17
2023-03-06T14:02:04.352Z,36.19
2023-03-06T14:05:13.482Z,36.34
2023-03-06T14:08:19.904Z,36.66
2023-03-06T14:11:23.806Z,37.11
2023-03-06T14:14:36.108Z,37.58
2023-03-06T14:17:40.047Z,37.45
2023-03-06T14:20:46.668Z,36.78
2023-03-06T14:24:00.707Z,37.06
2023-03-06T14:27:04.876Z,37.52
2023-03-06T14:30:17.894Z,37.37
2023-03-06T14:33:35.217Z,37.54
2023-03-06T14:36:46.057Z,37.98
2023-03-06T14:39:50.679Z,38.44
2023-03-06T14:43:13.309Z,38.62
2023-03-06T14:46:23.711Z,38.68
2023-03-06T14:49:28.098Z,39.88
2023-03-06T14:52:32.191Z,40.68
2023-03-06T14:55:37.844Z,40.45
2023-03-06T14:58:48.014Z,40.65
2023-03-06T15:01:58.447Z,40.80
2023-03-06T15:05:07.214Z,41.37
2023-03-06T15:08:11.189Z,41.85
2023-03-06T15:11:15.292Z,42.43
2023-03-06T15:14:20.662Z,42.77
2023-03-06T15:17:30.117Z,42.55
2023-03-06T15:20:48.597Z,43.04
2023-03-06T15:23:53.295Z,43.54
2023-03-06T15:26:59.513Z,43.89
2023-03-06T15:30:14.986Z,44.51
2023-03-06T15:33:27.652Z,44.97
2023-03-06T15:36:33.140Z,45.13
2023-03-06T15:39:39.647Z,45.55
2023-03-06T15:42:44.335Z,45.61
2023-03-06T15:45:48.269Z,46.35
2023-03-06T15:49:01.071Z,46.33
2023-03-06T15:52:05.833Z,46.40
2023-03-06T15:55:10.706Z,46.74
2023-03-06T15:58:18.297Z,46.87
2023-03-06T16:01:22.543Z,47.73
2023-03-06T16:04:28.006Z,47.92
2023-03-06T16:07:31.915Z,47.88
2023-03-06T16:10:39.612Z,48.41
2023-03-06T16:13:43.496Z,48.25
2023-03-06T16:16:47.675Z,48.76
2023-03-06T16:19:53.284Z,49.03
2023-03-06T16:22:57.599Z,49.66
2023-03-06T16:26:01.530Z,50.05
2023-03-06T16:29:05.725Z,49.92
2023-03-06T16:32:12.826Z,50.41
2023-03-06T16:35:18.804Z,49.98
2023-03-06T16:38:22.747Z,50.20
2023-03-06T16:41:26.740Z,49.97
2023-03-06T16:44:30.626Z,49.86
2023-03-06T16:47:34.399Z,49.84
2023-03-06T16:50:41.860Z,50.02
2023-03-06T16:53:46.409Z,49.72
2023-03-06T16:56:50.383Z,49.77
2023-03-06T16:59:54.328Z,49.97
2023-03-06T17:02:58.192Z,49.89
2023-03-06T17:06:03.849Z,49.69
2023-03-06T17:09:08.080Z,49.86
2023-03-06T17:12:12.104Z,49.81
2023-03-06T17:15:16.071Z,50.06
2023-03-06T17:18:20.011Z,49.97
2023-03-06T17:21:26.948Z,50.22
2023-03-06T17:24:31.029Z,50.61
2023-03-06T17:27:37.802Z,50.94
2023-03-06T17:30:41.723Z,51.87
2023-03-06T17:33:45.703Z,51.84
2023-03-06T17:36:51.089Z,51.87
2023-03-06T17:39:55.298Z,52.09
2023-03-06T17:42:59.233Z,51.80
2023-03-06T17:46:05.242Z,51.81
2023-03-06T17:49:10.212Z,51.97
2023-03-06T17:52:15.585Z,52.85
2023-03-06T17:55:19.459Z,53.13
2023-03-06T17:58:23.342Z,53.43
2023-03-06T18:01:28.753Z,53.47
2023-03-06T18:04:32.676Z,53.77
2023-03-06T18:07:37.942Z,54.75
2023-03-06T18:10:42.585Z,54.56
2023-03-06T18:13:47.683Z,54.33
2023-03-06T18:16:51.700Z,54.96
2023-03-06T18:19:57.008Z,55.65
2023-03-06T18:23:03.916Z,55.37
2023-03-06T18:26:10.579Z,55.73
2023-03-06T18:29:14.586Z,56.62
2023-03-06T18:32:18.355Z,57.21
2023-03-06T18:35:22.689Z,57.50
2023-03-06T18:38:27.930Z,58.86
2023-03-06T18:41:32.667Z,58.80
2023-03-06T18:44:36.441Z,59.48
2023-03-06T18:47:40.736Z,59.83
2023-03-06T18:50:44.623Z,60.50
2023-03-06T18:53:50.130Z,60.22
2023-03-06T18:56:53.948Z,61.29
2023-03-06T18:59:57.808Z,60.60
2023-03-06T19:03:01.476Z,61.10
2023-03-06T19:06:10.700Z,61.21
2023-03-06T19:09:15.985Z,62.10
2023-03-06T19:12:19.828Z,61.85
2023-03-06T19:15:23.663Z,62.57
2023-03-06T19:18:28.904Z,62.03
2023-03-06T19:21:33.068Z,62.14
2023-03-06T19:24:38.324Z,62.27
2023-03-06T19:27:45.009Z,61.92
2023-03-06T19:30:48.693Z,62.22
2023-03-06T19:33:54.132Z,62.17
2023-03-06T19:36:57.921Z,62.53
2023-03-06T19:40:04.036Z,62.13
2023-03-06T19:43:08.061Z,62.38
2023-03-06T19:46:14.395Z,62.96
2023-03-06T19:49:21.921Z,63.48
2023-03-06T19:52:25.863Z,62.48
2023-03-06T19:55:32.082Z,62.85
2023-03-06T19:58:36.060Z,63.29
2023-03-06T20:01:40.708Z,63.64
2023-03-06T20:04:44.625Z,62.55
2023-03-06T20:07:48.493Z,62.92
2023-03-06T20:10:53.825Z,62.72
2023-03-06T20:13:58.592Z,63.13
2023-03-06T20:17:02.631Z,63.66
2023-03-06T20:20:07.449Z,64.15
2023-03-06T20:23:11.616Z,63.86
2023-03-06T20:26:17.981Z,64.01
2023-03-06T20:29:21.972Z,64.25
2023-03-06T20:32:26.059Z,64.04
2023-03-06T20:35:30.038Z,63.80
2023-03-06T20:38:33.783Z,64.41
2023-03-06T20:41:39.302Z,64.33
2023-03-06T20:44:43.072Z,64.96
2023-03-06T20:47:47.534Z,64.67
2023-03-06T20:51:01.382Z,64.24
2023-03-06T20:54:05.818Z,64.39
2023-03-06T20:57:11.106Z,64.16
2023-03-06T21:00:15.657Z,64.62
2023-03-06T21:03:19.419Z,64.27
2023-03-06T21:06:23.405Z,65.02
2023-03-06T21:09:27.342Z,66.08
2023-03-06T21:12:32.547Z,65.95
2023-03-06T21:15:39.240Z,66.47
2023-03-06T21:18:43.175Z,66.23
2023-03-06T21:21:47.036Z,64.88
2023-03-06T21:24:50.878Z,66.06
2023-03-06T21:27:56.470Z,66.52
2023-03-06T21:31:02.051Z,66.90
2023-03-06T21:34:06.495Z,66.78
2023-03-06T21:37:10.360Z,66.17
2023-03-06T21:40:15.495Z,65.14
2023-03-06T21:43:20.833Z,66.63
2023-03-06T21:46:25.179Z,66.79
2023-03-06T21:49:29.719Z,66.67
2023-03-06T21:52:33.494Z,67.14
2023-03-06T21:55:40.812Z,67.03
2023-03-06T21:58:47.402Z,66.50
2023-03-06T22:01:51.578Z,66.37
2023-03-06T22:04:55.590Z,65.87
2023-03-06T22:07:59.978Z,66.78
2023-03-06T22:11:07.713Z,66.98
2023-03-06T22:14:15.059Z,66.30
2023-03-06T22:17:19.094Z,67.01
2023-03-06T22:20:23.096Z,67.09
2023-03-06T22:23:27.182Z,69.69
2023-03-06T22:26:31.784Z,69.98
2023-03-06T22:29:37.456Z,69.58
2023-03-06T22:32:41.496Z,69.44
2023-03-06T22:35:45.302Z,69.39
2023-03-06T22:38:50.189Z,68.29
2023-03-06T22:41:56.633Z,67.98
2023-03-06T22:45:01.773Z,68.52
2023-03-06T22:48:11.028Z,68.96
2023-03-06T22:51:17.785Z,68.93
2023-03-06T22:54:21.720Z,71.00
2023-03-06T22:57:25.912Z,70.36
2023-03-06T23:00:31.499Z,70.64
2023-03-06T23:03:36.266Z,71.23
2023-03-06T23:06:41.479Z,71.01
2023-03-06T23:09:45.231Z,72.40
2023-03-06T23:13:10.444Z,71.03
2023-03-06T23:16:34.489Z,71.61
2023-03-06T23:19:56.693Z,70.98
2023-03-06T23:23:19.145Z,71.35
2023-03-06T23:26:25.091Z,72.83
2023-03-06T23:29:29.052Z,73.88
2023-03-06T23:32:35.087Z,72.80
2023-03-06T23:35:40.179Z,71.14
2023-03-06T23:38:44.572Z,72.46
2023-03-06T23:41:48.400Z,73.68
2023-03-06T23:44:52.518Z,73.33
2023-03-06T23:47:58.195Z,73.75
2023-03-06T23:51:02.231Z,72.93
2023-03-06T23:54:07.206Z,73.32
2023-03-06T23:57:11.253Z,74.96
